sensor_id;sensor_type;location;lat;lon;timestamp;P1;durP1;ratioP1;P2;durP2;ratioP2
40433;SDS011;26146;51.114;5.654;2023-07-31T00:03:47;10.52;;;2.88;;
40433;SDS011;26146;51.114;5.654;2023-07-31T00:07:48;12.25;;;3.03;;
40433;SDS011;26146;51.114;5.654;2023-07-31T00:11:49;12.40;;;3.10;;
40433;SDS011;26146;51.114;5.654;2023-07-31T00:15:51;13.18;;;2.75;;
40433;SDS011;26146;51.114;5.654;2023-07-31T00:19:52;11.45;;;2.85;;
40433;SDS011;26146;51.114;5.654;2023-07-31T00:23:53;14.32;;;3.00;;
40433;SDS011;26146;51.114;5.654;2023-07-31T00:27:54;14.00;;;2.95;;
40433;SDS011;26146;51.114;5.654;2023-07-31T00:31:55;13.43;;;3.30;;
40433;SDS011;26146;51.114;5.654;2023-07-31T00:35:56;12.40;;;2.97;;
40433;SDS011;26146;51.114;5.654;2023-07-31T00:39:59;14.65;;;3.47;;
40433;SDS011;26146;51.114;5.654;2023-07-31T00:44:01;13.30;;;3.17;;
40433;SDS011;26146;51.114;5.654;2023-07-31T00:48:01;13.13;;;3.03;;
40433;SDS011;26146;51.114;5.654;2023-07-31T00:52:03;12.30;;;2.85;;
40433;SDS011;26146;51.114;5.654;2023-07-31T00:56:04;16.00;;;3.25;;
40433;SDS011;26146;51.114;5.654;2023-07-31T01:00:05;14.05;;;3.38;;
40433;SDS011;26146;51.114;5.654;2023-07-31T01:04:07;14.63;;;3.80;;
40433;SDS011;26146;51.114;5.654;2023-07-31T01:08:12;13.07;;;3.38;;
40433;SDS011;26146;51.114;5.654;2023-07-31T01:12:23;10.65;;;3.05;;
40433;SDS011;26146;51.114;5.654;2023-07-31T01:16:27;17.85;;;3.20;;
40433;SDS011;26146;51.114;5.654;2023-07-31T01:20:28;13.02;;;3.10;;
40433;SDS011;26146;51.114;5.654;2023-07-31T01:33:23;17.65;;;3.50;;
40433;SDS011;26146;51.114;5.654;2023-07-31T01:37:28;14.77;;;3.20;;
40433;SDS011;26146;51.114;5.654;2023-07-31T01:41:32;14.75;;;3.33;;
40433;SDS011;26146;51.114;5.654;2023-07-31T01:45:33;11.60;;;2.92;;
40433;SDS011;26146;51.114;5.654;2023-07-31T01:49:34;11.05;;;3.15;;
40433;SDS011;26146;51.114;5.654;2023-07-31T01:53:35;13.88;;;3.42;;
40433;SDS011;26146;51.114;5.654;2023-07-31T01:57:36;13.10;;;3.40;;
40433;SDS011;26146;51.114;5.654;2023-07-31T02:01:38;14.55;;;3.22;;
40433;SDS011;26146;51.114;5.654;2023-07-31T02:05:45;12.65;;;3.28;;
40433;SDS011;26146;51.114;5.654;2023-07-31T02:09:46;12.95;;;3.00;;
40433;SDS011;26146;51.114;5.654;2023-07-31T02:13:48;11.90;;;3.08;;
40433;SDS011;26146;51.114;5.654;2023-07-31T02:17:49;11.73;;;3.00;;
40433;SDS011;26146;51.114;5.654;2023-07-31T02:21:50;15.57;;;3.33;;
40433;SDS011;26146;51.114;5.654;2023-07-31T02:25:51;12.90;;;3.13;;
40433;SDS011;26146;51.114;5.654;2023-07-31T02:29:52;13.93;;;3.50;;
40433;SDS011;26146;51.114;5.654;2023-07-31T02:33:53;13.23;;;3.35;;
40433;SDS011;26146;51.114;5.654;2023-07-31T02:37:54;10.80;;;3.22;;
40433;SDS011;26146;51.114;5.654;2023-07-31T02:41:55;12.50;;;3.70;;
40433;SDS011;26146;51.114;5.654;2023-07-31T02:45:58;9.82;;;3.10;;
40433;SDS011;26146;51.114;5.654;2023-07-31T02:50:00;12.77;;;3.50;;
40433;SDS011;26146;51.114;5.654;2023-07-31T02:54:02;11.73;;;3.20;;
40433;SDS011;26146;51.114;5.654;2023-07-31T02:58:05;12.20;;;3.35;;
40433;SDS011;26146;51.114;5.654;2023-07-31T03:02:06;10.30;;;3.00;;
40433;SDS011;26146;51.114;5.654;2023-07-31T03:06:07;11.35;;;3.47;;
40433;SDS011;26146;51.114;5.654;2023-07-31T03:10:08;13.32;;;3.10;;
40433;SDS011;26146;51.114;5.654;2023-07-31T03:14:09;12.20;;;3.22;;
40433;SDS011;26146;51.114;5.654;2023-07-31T03:18:10;12.00;;;3.60;;
40433;SDS011;26146;51.114;5.654;2023-07-31T03:22:11;13.82;;;3.30;;
40433;SDS011;26146;51.114;5.654;2023-07-31T03:26:12;11.02;;;3.13;;
40433;SDS011;26146;51.114;5.654;2023-07-31T03:30:13;11.20;;;3.00;;
40433;SDS011;26146;51.114;5.654;2023-07-31T03:34:17;14.23;;;3.45;;
40433;SDS011;26146;51.114;5.654;2023-07-31T03:38:20;13.35;;;3.20;;
40433;SDS011;26146;51.114;5.654;2023-07-31T03:42:21;14.35;;;3.88;;
40433;SDS011;26146;51.114;5.654;2023-07-31T03:46:22;9.82;;;3.08;;
40433;SDS011;26146;51.114;5.654;2023-07-31T03:50:24;11.15;;;3.38;;
40433;SDS011;26146;51.114;5.654;2023-07-31T03:54:27;10.80;;;3.33;;
40433;SDS011;26146;51.114;5.654;2023-07-31T03:58:28;10.82;;;3.50;;
40433;SDS011;26146;51.114;5.654;2023-07-31T04:02:29;10.73;;;3.15;;
40433;SDS011;26146;51.114;5.654;2023-07-31T04:06:30;11.63;;;3.33;;
40433;SDS011;26146;51.114;5.654;2023-07-31T04:10:31;10.45;;;3.20;;
40433;SDS011;26146;51.114;5.654;2023-07-31T04:14:34;10.90;;;3.50;;
40433;SDS011;26146;51.114;5.654;2023-07-31T04:18:35;10.32;;;3.35;;
40433;SDS011;26146;51.114;5.654;2023-07-31T04:22:36;8.95;;;3.20;;
40433;SDS011;26146;51.114;5.654;2023-07-31T04:26:37;11.73;;;3.33;;
40433;SDS011;26146;51.114;5.654;2023-07-31T04:30:38;11.52;;;3.08;;
40433;SDS011;26146;51.114;5.654;2023-07-31T04:34:39;10.98;;;3.90;;
40433;SDS011;26146;51.114;5.654;2023-07-31T04:38:40;10.75;;;3.05;;
40433;SDS011;26146;51.114;5.654;2023-07-31T04:42:41;10.63;;;2.97;;
40433;SDS011;26146;51.114;5.654;2023-07-31T04:46:42;9.73;;;3.20;;
40433;SDS011;26146;51.114;5.654;2023-07-31T04:50:43;11.05;;;3.13;;
40433;SDS011;26146;51.114;5.654;2023-07-31T04:54:44;8.57;;;3.03;;
40433;SDS011;26146;51.114;5.654;2023-07-31T04:58:45;10.20;;;3.17;;
40433;SDS011;26146;51.114;5.654;2023-07-31T05:02:46;10.35;;;3.30;;
40433;SDS011;26146;51.114;5.654;2023-07-31T05:06:47;9.20;;;2.70;;
40433;SDS011;26146;51.114;5.654;2023-07-31T05:10:48;10.02;;;3.00;;
40433;SDS011;26146;51.114;5.654;2023-07-31T05:14:49;9.90;;;2.85;;
40433;SDS011;26146;51.114;5.654;2023-07-31T05:18:50;9.18;;;3.47;;
40433;SDS011;26146;51.114;5.654;2023-07-31T05:22:51;10.43;;;3.00;;
40433;SDS011;26146;51.114;5.654;2023-07-31T05:26:52;8.95;;;3.25;;
40433;SDS011;26146;51.114;5.654;2023-07-31T05:30:58;10.25;;;3.15;;
40433;SDS011;26146;51.114;5.654;2023-07-31T05:35:00;8.80;;;2.85;;
40433;SDS011;26146;51.114;5.654;2023-07-31T05:39:01;9.90;;;3.20;;
40433;SDS011;26146;51.114;5.654;2023-07-31T05:43:08;12.73;;;3.20;;
40433;SDS011;26146;51.114;5.654;2023-07-31T05:47:09;10.25;;;3.13;;
40433;SDS011;26146;51.114;5.654;2023-07-31T05:51:11;11.13;;;3.17;;
40433;SDS011;26146;51.114;5.654;2023-07-31T05:55:12;9.38;;;3.28;;
40433;SDS011;26146;51.114;5.654;2023-07-31T05:59:13;8.00;;;3.00;;
40433;SDS011;26146;51.114;5.654;2023-07-31T06:03:14;11.27;;;3.08;;
40433;SDS011;26146;51.114;5.654;2023-07-31T06:07:15;11.30;;;2.83;;
40433;SDS011;26146;51.114;5.654;2023-07-31T06:11:16;10.02;;;3.20;;
40433;SDS011;26146;51.114;5.654;2023-07-31T06:15:17;13.02;;;3.05;;
40433;SDS011;26146;51.114;5.654;2023-07-31T06:19:19;10.23;;;3.40;;
40433;SDS011;26146;51.114;5.654;2023-07-31T06:23:20;8.77;;;2.83;;
40433;SDS011;26146;51.114;5.654;2023-07-31T06:27:24;7.68;;;2.78;;
40433;SDS011;26146;51.114;5.654;2023-07-31T06:31:25;12.35;;;3.10;;
40433;SDS011;26146;51.114;5.654;2023-07-31T06:35:26;8.98;;;2.85;;
40433;SDS011;26146;51.114;5.654;2023-07-31T06:39:27;8.48;;;2.80;;
40433;SDS011;26146;51.114;5.654;2023-07-31T06:43:28;12.43;;;2.75;;
40433;SDS011;26146;51.114;5.654;2023-07-31T06:47:29;9.05;;;2.33;;
40433;SDS011;26146;51.114;5.654;2023-07-31T06:51:30;7.55;;;2.13;;
40433;SDS011;26146;51.114;5.654;2023-07-31T06:55:32;7.40;;;2.47;;
40433;SDS011;26146;51.114;5.654;2023-07-31T06:59:33;8.48;;;2.28;;
40433;SDS011;26146;51.114;5.654;2023-07-31T07:03:34;8.73;;;2.30;;
40433;SDS011;26146;51.114;5.654;2023-07-31T07:07:36;9.82;;;2.10;;
40433;SDS011;26146;51.114;5.654;2023-07-31T07:11:37;9.52;;;2.28;;
40433;SDS011;26146;51.114;5.654;2023-07-31T07:15:39;8.48;;;2.60;;
40433;SDS011;26146;51.114;5.654;2023-07-31T07:19:40;8.63;;;2.20;;
40433;SDS011;26146;51.114;5.654;2023-07-31T07:23:42;10.50;;;2.60;;
40433;SDS011;26146;51.114;5.654;2023-07-31T07:27:43;6.88;;;2.38;;
40433;SDS011;26146;51.114;5.654;2023-07-31T07:31:44;8.40;;;2.47;;
40433;SDS011;26146;51.114;5.654;2023-07-31T07:35:46;8.35;;;2.40;;
40433;SDS011;26146;51.114;5.654;2023-07-31T07:39:47;9.50;;;2.90;;
40433;SDS011;26146;51.114;5.654;2023-07-31T07:43:49;9.18;;;2.50;;
40433;SDS011;26146;51.114;5.654;2023-07-31T07:47:51;9.60;;;2.65;;
40433;SDS011;26146;51.114;5.654;2023-07-31T07:51:53;10.43;;;2.67;;
40433;SDS011;26146;51.114;5.654;2023-07-31T07:55:54;9.00;;;3.15;;
40433;SDS011;26146;51.114;5.654;2023-07-31T07:59:55;8.10;;;2.55;;
40433;SDS011;26146;51.114;5.654;2023-07-31T08:03:56;9.65;;;2.78;;
40433;SDS011;26146;51.114;5.654;2023-07-31T08:07:57;9.50;;;2.65;;
40433;SDS011;26146;51.114;5.654;2023-07-31T08:11:57;9.20;;;2.58;;
40433;SDS011;26146;51.114;5.654;2023-07-31T08:16:03;8.43;;;2.88;;
40433;SDS011;26146;51.114;5.654;2023-07-31T08:20:05;8.32;;;3.08;;
40433;SDS011;26146;51.114;5.654;2023-07-31T08:24:07;9.63;;;2.80;;
40433;SDS011;26146;51.114;5.654;2023-07-31T08:28:08;9.43;;;2.70;;
40433;SDS011;26146;51.114;5.654;2023-07-31T08:32:09;7.28;;;2.60;;
40433;SDS011;26146;51.114;5.654;2023-07-31T08:36:11;9.70;;;2.70;;
40433;SDS011;26146;51.114;5.654;2023-07-31T08:40:12;8.38;;;2.42;;
40433;SDS011;26146;51.114;5.654;2023-07-31T08:44:14;9.20;;;2.70;;
40433;SDS011;26146;51.114;5.654;2023-07-31T08:48:16;8.70;;;2.50;;
40433;SDS011;26146;51.114;5.654;2023-07-31T08:52:18;8.20;;;2.70;;
40433;SDS011;26146;51.114;5.654;2023-07-31T08:56:19;8.80;;;3.00;;
40433;SDS011;26146;51.114;5.654;2023-07-31T09:00:20;8.68;;;2.53;;
40433;SDS011;26146;51.114;5.654;2023-07-31T09:04:23;7.75;;;2.40;;
40433;SDS011;26146;51.114;5.654;2023-07-31T09:08:26;7.90;;;2.40;;
40433;SDS011;26146;51.114;5.654;2023-07-31T09:12:31;7.00;;;2.40;;
40433;SDS011;26146;51.114;5.654;2023-07-31T09:16:32;7.88;;;2.58;;
40433;SDS011;26146;51.114;5.654;2023-07-31T09:20:33;9.63;;;2.17;;
40433;SDS011;26146;51.114;5.654;2023-07-31T09:24:35;8.00;;;2.30;;
40433;SDS011;26146;51.114;5.654;2023-07-31T09:28:36;10.10;;;2.40;;
40433;SDS011;26146;51.114;5.654;2023-07-31T09:32:37;6.35;;;2.10;;
40433;SDS011;26146;51.114;5.654;2023-07-31T09:36:45;6.97;;;2.10;;
40433;SDS011;26146;51.114;5.654;2023-07-31T09:40:48;8.07;;;2.08;;
40433;SDS011;26146;51.114;5.654;2023-07-31T09:44:49;6.05;;;1.70;;
40433;SDS011;26146;51.114;5.654;2023-07-31T09:48:50;7.07;;;1.50;;
40433;SDS011;26146;51.114;5.654;2023-07-31T09:52:51;5.70;;;1.40;;
40433;SDS011;26146;51.114;5.654;2023-07-31T09:56:52;5.43;;;1.20;;
40433;SDS011;26146;51.114;5.654;2023-07-31T10:00:54;5.20;;;1.50;;
40433;SDS011;26146;51.114;5.654;2023-07-31T10:04:57;5.57;;;1.60;;
40433;SDS011;26146;51.114;5.654;2023-07-31T10:09:05;6.22;;;1.45;;
40433;SDS011;26146;51.114;5.654;2023-07-31T10:13:07;7.43;;;1.42;;
40433;SDS011;26146;51.114;5.654;2023-07-31T10:17:09;5.72;;;1.40;;
40433;SDS011;26146;51.114;5.654;2023-07-31T10:21:11;5.47;;;1.40;;
40433;SDS011;26146;51.114;5.654;2023-07-31T10:25:12;4.95;;;1.20;;
40433;SDS011;26146;51.114;5.654;2023-07-31T10:29:17;5.28;;;1.40;;
40433;SDS011;26146;51.114;5.654;2023-07-31T10:33:20;6.15;;;1.20;;
40433;SDS011;26146;51.114;5.654;2023-07-31T10:41:31;5.55;;;1.40;;
40433;SDS011;26146;51.114;5.654;2023-07-31T10:49:33;6.43;;;1.50;;
40433;SDS011;26146;51.114;5.654;2023-07-31T10:53:36;5.57;;;1.40;;
40433;SDS011;26146;51.114;5.654;2023-07-31T10:57:38;6.95;;;1.60;;
40433;SDS011;26146;51.114;5.654;2023-07-31T11:01:52;5.18;;;1.58;;
40433;SDS011;26146;51.114;5.654;2023-07-31T11:06:01;7.30;;;1.70;;
40433;SDS011;26146;51.114;5.654;2023-07-31T11:10:06;5.80;;;1.50;;
40433;SDS011;26146;51.114;5.654;2023-07-31T11:14:07;6.68;;;1.63;;
40433;SDS011;26146;51.114;5.654;2023-07-31T11:18:11;8.15;;;2.28;;
40433;SDS011;26146;51.114;5.654;2023-07-31T11:22:12;6.40;;;1.70;;
40433;SDS011;26146;51.114;5.654;2023-07-31T11:26:14;7.95;;;1.90;;
40433;SDS011;26146;51.114;5.654;2023-07-31T11:30:15;8.82;;;2.17;;
40433;SDS011;26146;51.114;5.654;2023-07-31T11:34:19;8.10;;;2.13;;
40433;SDS011;26146;51.114;5.654;2023-07-31T11:38:21;7.95;;;2.10;;
40433;SDS011;26146;51.114;5.654;2023-07-31T11:42:27;8.50;;;2.50;;
40433;SDS011;26146;51.114;5.654;2023-07-31T11:46:30;9.77;;;2.60;;
40433;SDS011;26146;51.114;5.654;2023-07-31T11:50:33;7.05;;;2.50;;
40433;SDS011;26146;51.114;5.654;2023-07-31T11:54:36;7.97;;;2.22;;
40433;SDS011;26146;51.114;5.654;2023-07-31T11:58:37;6.93;;;2.25;;
40433;SDS011;26146;51.114;5.654;2023-07-31T12:02:41;8.02;;;2.30;;
40433;SDS011;26146;51.114;5.654;2023-07-31T12:06:43;7.80;;;2.40;;
40433;SDS011;26146;51.114;5.654;2023-07-31T12:10:44;8.50;;;2.30;;
40433;SDS011;26146;51.114;5.654;2023-07-31T12:14:45;8.70;;;2.50;;
40433;SDS011;26146;51.114;5.654;2023-07-31T12:18:49;8.98;;;2.42;;
40433;SDS011;26146;51.114;5.654;2023-07-31T12:22:50;7.00;;;2.13;;
40433;SDS011;26146;51.114;5.654;2023-07-31T12:26:51;7.72;;;2.38;;
40433;SDS011;26146;51.114;5.654;2023-07-31T12:30:56;10.73;;;2.60;;
40433;SDS011;26146;51.114;5.654;2023-07-31T12:35:00;8.02;;;2.42;;
40433;SDS011;26146;51.114;5.654;2023-07-31T12:39:02;9.90;;;2.60;;
40433;SDS011;26146;51.114;5.654;2023-07-31T12:43:05;7.50;;;2.47;;
40433;SDS011;26146;51.114;5.654;2023-07-31T12:47:07;9.90;;;2.50;;
40433;SDS011;26146;51.114;5.654;2023-07-31T12:51:08;10.70;;;2.75;;
40433;SDS011;26146;51.114;5.654;2023-07-31T12:55:08;8.15;;;2.42;;
40433;SDS011;26146;51.114;5.654;2023-07-31T12:59:12;7.80;;;2.40;;
40433;SDS011;26146;51.114;5.654;2023-07-31T13:03:15;7.70;;;2.17;;
40433;SDS011;26146;51.114;5.654;2023-07-31T13:07:16;8.23;;;2.50;;
40433;SDS011;26146;51.114;5.654;2023-07-31T13:11:17;7.43;;;2.40;;
40433;SDS011;26146;51.114;5.654;2023-07-31T13:15:23;9.77;;;2.58;;
40433;SDS011;26146;51.114;5.654;2023-07-31T13:19:24;9.57;;;2.40;;
40433;SDS011;26146;51.114;5.654;2023-07-31T13:23:25;8.23;;;2.47;;
40433;SDS011;26146;51.114;5.654;2023-07-31T13:27:25;7.72;;;2.40;;
40433;SDS011;26146;51.114;5.654;2023-07-31T13:31:26;8.15;;;2.33;;
40433;SDS011;26146;51.114;5.654;2023-07-31T13:35:27;9.88;;;2.40;;
40433;SDS011;26146;51.114;5.654;2023-07-31T13:39:28;9.25;;;2.38;;
40433;SDS011;26146;51.114;5.654;2023-07-31T13:43:33;7.80;;;2.67;;
40433;SDS011;26146;51.114;5.654;2023-07-31T13:47:34;9.35;;;2.90;;
40433;SDS011;26146;51.114;5.654;2023-07-31T13:51:37;10.00;;;2.63;;
40433;SDS011;26146;51.114;5.654;2023-07-31T13:55:39;10.50;;;2.85;;
40433;SDS011;26146;51.114;5.654;2023-07-31T13:59:41;9.57;;;3.10;;
40433;SDS011;26146;51.114;5.654;2023-07-31T14:03:42;10.23;;;3.10;;
40433;SDS011;26146;51.114;5.654;2023-07-31T14:07:43;9.73;;;3.17;;
40433;SDS011;26146;51.114;5.654;2023-07-31T14:11:44;9.10;;;2.90;;
40433;SDS011;26146;51.114;5.654;2023-07-31T14:15:45;9.95;;;2.80;;
40433;SDS011;26146;51.114;5.654;2023-07-31T14:19:46;10.38;;;3.20;;
40433;SDS011;26146;51.114;5.654;2023-07-31T14:23:47;9.02;;;3.00;;
40433;SDS011;26146;51.114;5.654;2023-07-31T14:27:47;9.68;;;2.80;;
40433;SDS011;26146;51.114;5.654;2023-07-31T14:31:48;9.65;;;3.15;;
40433;SDS011;26146;51.114;5.654;2023-07-31T14:35:49;8.52;;;2.60;;
40433;SDS011;26146;51.114;5.654;2023-07-31T14:39:50;8.43;;;2.78;;
40433;SDS011;26146;51.114;5.654;2023-07-31T14:43:51;11.73;;;2.80;;
40433;SDS011;26146;51.114;5.654;2023-07-31T14:47:52;9.55;;;2.83;;
40433;SDS011;26146;51.114;5.654;2023-07-31T14:51:54;9.30;;;3.10;;
40433;SDS011;26146;51.114;5.654;2023-07-31T14:55:55;9.35;;;3.00;;
40433;SDS011;26146;51.114;5.654;2023-07-31T14:59:57;9.55;;;3.10;;
40433;SDS011;26146;51.114;5.654;2023-07-31T15:03:58;9.02;;;2.90;;
40433;SDS011;26146;51.114;5.654;2023-07-31T15:07:59;7.25;;;2.22;;
40433;SDS011;26146;51.114;5.654;2023-07-31T15:12:00;6.68;;;2.22;;
40433;SDS011;26146;51.114;5.654;2023-07-31T15:16:01;8.55;;;2.40;;
40433;SDS011;26146;51.114;5.654;2023-07-31T15:20:02;8.75;;;2.22;;
40433;SDS011;26146;51.114;5.654;2023-07-31T15:24:04;9.02;;;2.45;;
40433;SDS011;26146;51.114;5.654;2023-07-31T15:28:05;7.07;;;2.05;;
40433;SDS011;26146;51.114;5.654;2023-07-31T15:32:07;7.88;;;2.08;;
40433;SDS011;26146;51.114;5.654;2023-07-31T15:36:08;7.65;;;2.00;;
40433;SDS011;26146;51.114;5.654;2023-07-31T15:40:09;7.88;;;2.10;;
40433;SDS011;26146;51.114;5.654;2023-07-31T15:44:11;6.72;;;1.90;;
40433;SDS011;26146;51.114;5.654;2023-07-31T15:48:12;6.65;;;1.80;;
40433;SDS011;26146;51.114;5.654;2023-07-31T15:52:12;5.45;;;1.48;;
40433;SDS011;26146;51.114;5.654;2023-07-31T15:56:13;5.60;;;1.40;;
40433;SDS011;26146;51.114;5.654;2023-07-31T16:00:15;5.55;;;1.40;;
40433;SDS011;26146;51.114;5.654;2023-07-31T16:04:16;6.07;;;1.50;;
40433;SDS011;26146;51.114;5.654;2023-07-31T16:08:17;5.38;;;1.40;;
40433;SDS011;26146;51.114;5.654;2023-07-31T16:12:18;6.15;;;1.35;;
40433;SDS011;26146;51.114;5.654;2023-07-31T16:16:19;5.90;;;1.38;;
40433;SDS011;26146;51.114;5.654;2023-07-31T16:20:21;5.28;;;1.40;;
40433;SDS011;26146;51.114;5.654;2023-07-31T16:24:22;5.93;;;1.40;;
40433;SDS011;26146;51.114;5.654;2023-07-31T16:28:23;6.63;;;1.85;;
40433;SDS011;26146;51.114;5.654;2023-07-31T16:32:24;5.15;;;1.40;;
40433;SDS011;26146;51.114;5.654;2023-07-31T16:36:26;6.65;;;1.42;;
40433;SDS011;26146;51.114;5.654;2023-07-31T16:40:27;5.03;;;1.52;;
40433;SDS011;26146;51.114;5.654;2023-07-31T16:44:28;5.93;;;1.42;;
40433;SDS011;26146;51.114;5.654;2023-07-31T16:48:29;6.30;;;1.50;;
40433;SDS011;26146;51.114;5.654;2023-07-31T16:52:30;5.05;;;1.30;;
40433;SDS011;26146;51.114;5.654;2023-07-31T16:56:31;6.22;;;1.90;;
40433;SDS011;26146;51.114;5.654;2023-07-31T17:00:32;6.07;;;1.70;;
40433;SDS011;26146;51.114;5.654;2023-07-31T17:04:33;7.00;;;1.52;;
40433;SDS011;26146;51.114;5.654;2023-07-31T17:08:34;6.20;;;1.40;;
40433;SDS011;26146;51.114;5.654;2023-07-31T17:12:35;5.32;;;1.50;;
40433;SDS011;26146;51.114;5.654;2023-07-31T17:16:36;5.00;;;1.42;;
40433;SDS011;26146;51.114;5.654;2023-07-31T17:20:37;4.72;;;1.30;;
40433;SDS011;26146;51.114;5.654;2023-07-31T17:24:38;4.88;;;1.42;;
40433;SDS011;26146;51.114;5.654;2023-07-31T17:28:39;4.28;;;1.20;;
40433;SDS011;26146;51.114;5.654;2023-07-31T17:32:40;5.53;;;1.30;;
40433;SDS011;26146;51.114;5.654;2023-07-31T17:36:42;5.35;;;1.38;;
40433;SDS011;26146;51.114;5.654;2023-07-31T17:40:43;4.45;;;1.20;;
40433;SDS011;26146;51.114;5.654;2023-07-31T17:44:44;5.70;;;1.40;;
40433;SDS011;26146;51.114;5.654;2023-07-31T17:48:46;5.30;;;1.35;;
40433;SDS011;26146;51.114;5.654;2023-07-31T17:52:47;5.15;;;1.20;;
40433;SDS011;26146;51.114;5.654;2023-07-31T17:56:48;4.05;;;1.10;;
40433;SDS011;26146;51.114;5.654;2023-07-31T18:00:50;6.75;;;1.10;;
40433;SDS011;26146;51.114;5.654;2023-07-31T18:04:52;4.53;;;1.20;;
40433;SDS011;26146;51.114;5.654;2023-07-31T18:08:53;4.70;;;1.00;;
40433;SDS011;26146;51.114;5.654;2023-07-31T18:12:54;4.00;;;1.10;;
40433;SDS011;26146;51.114;5.654;2023-07-31T18:16:55;4.75;;;1.02;;
40433;SDS011;26146;51.114;5.654;2023-07-31T18:20:56;4.90;;;1.13;;
40433;SDS011;26146;51.114;5.654;2023-07-31T18:24:59;4.80;;;1.13;;
40433;SDS011;26146;51.114;5.654;2023-07-31T18:29:00;4.35;;;1.13;;
40433;SDS011;26146;51.114;5.654;2023-07-31T18:33:01;5.45;;;1.10;;
40433;SDS011;26146;51.114;5.654;2023-07-31T18:37:02;3.53;;;0.95;;
40433;SDS011;26146;51.114;5.654;2023-07-31T18:41:05;4.22;;;1.20;;
40433;SDS011;26146;51.114;5.654;2023-07-31T18:45:07;4.63;;;1.10;;
40433;SDS011;26146;51.114;5.654;2023-07-31T18:49:08;4.50;;;1.30;;
40433;SDS011;26146;51.114;5.654;2023-07-31T18:53:09;4.65;;;1.10;;
40433;SDS011;26146;51.114;5.654;2023-07-31T18:57:12;4.80;;;1.30;;
40433;SDS011;26146;51.114;5.654;2023-07-31T19:01:13;4.13;;;1.10;;
40433;SDS011;26146;51.114;5.654;2023-07-31T19:05:14;3.85;;;0.98;;
40433;SDS011;26146;51.114;5.654;2023-07-31T19:09:15;5.68;;;1.10;;
40433;SDS011;26146;51.114;5.654;2023-07-31T19:13:27;4.25;;;1.15;;
40433;SDS011;26146;51.114;5.654;2023-07-31T19:17:30;4.05;;;0.90;;
40433;SDS011;26146;51.114;5.654;2023-07-31T19:21:31;3.40;;;0.90;;
40433;SDS011;26146;51.114;5.654;2023-07-31T19:25:32;4.07;;;0.90;;
40433;SDS011;26146;51.114;5.654;2023-07-31T19:29:33;3.13;;;0.80;;
40433;SDS011;26146;51.114;5.654;2023-07-31T19:33:34;2.67;;;0.68;;
40433;SDS011;26146;51.114;5.654;2023-07-31T19:37:35;3.58;;;0.82;;
40433;SDS011;26146;51.114;5.654;2023-07-31T19:41:36;3.13;;;0.82;;
40433;SDS011;26146;51.114;5.654;2023-07-31T19:45:42;4.35;;;0.73;;
40433;SDS011;26146;51.114;5.654;2023-07-31T19:49:43;4.40;;;1.00;;
40433;SDS011;26146;51.114;5.654;2023-07-31T19:53:44;3.70;;;0.88;;
40433;SDS011;26146;51.114;5.654;2023-07-31T19:57:45;3.22;;;0.70;;
40433;SDS011;26146;51.114;5.654;2023-07-31T20:01:46;3.85;;;0.93;;
40433;SDS011;26146;51.114;5.654;2023-07-31T20:05:47;5.40;;;1.05;;
40433;SDS011;26146;51.114;5.654;2023-07-31T20:09:49;3.45;;;0.82;;
40433;SDS011;26146;51.114;5.654;2023-07-31T20:13:51;3.30;;;0.75;;
40433;SDS011;26146;51.114;5.654;2023-07-31T20:17:52;5.55;;;1.10;;
40433;SDS011;26146;51.114;5.654;2023-07-31T20:21:53;6.07;;;1.05;;
40433;SDS011;26146;51.114;5.654;2023-07-31T20:25:56;5.18;;;1.10;;
40433;SDS011;26146;51.114;5.654;2023-07-31T20:29:57;3.35;;;0.90;;
40433;SDS011;26146;51.114;5.654;2023-07-31T20:33:58;3.45;;;0.95;;
40433;SDS011;26146;51.114;5.654;2023-07-31T20:37:59;3.33;;;0.90;;
40433;SDS011;26146;51.114;5.654;2023-07-31T20:42:00;4.07;;;0.88;;
40433;SDS011;26146;51.114;5.654;2023-07-31T20:46:01;5.35;;;1.00;;
40433;SDS011;26146;51.114;5.654;2023-07-31T20:50:02;3.45;;;1.00;;
40433;SDS011;26146;51.114;5.654;2023-07-31T20:54:04;4.80;;;1.02;;
40433;SDS011;26146;51.114;5.654;2023-07-31T20:58:05;2.83;;;0.80;;
40433;SDS011;26146;51.114;5.654;2023-07-31T21:02:07;4.88;;;1.00;;
40433;SDS011;26146;51.114;5.654;2023-07-31T21:06:08;3.03;;;0.85;;
40433;SDS011;26146;51.114;5.654;2023-07-31T21:10:09;3.90;;;0.80;;
40433;SDS011;26146;51.114;5.654;2023-07-31T21:14:11;4.20;;;0.90;;
40433;SDS011;26146;51.114;5.654;2023-07-31T21:18:12;4.13;;;1.00;;
40433;SDS011;26146;51.114;5.654;2023-07-31T21:22:15;3.88;;;0.80;;
40433;SDS011;26146;51.114;5.654;2023-07-31T21:26:16;3.55;;;0.90;;
40433;SDS011;26146;51.114;5.654;2023-07-31T21:30:17;4.00;;;1.00;;
40433;SDS011;26146;51.114;5.654;2023-07-31T21:34:18;3.67;;;0.88;;
40433;SDS011;26146;51.114;5.654;2023-07-31T21:38:19;3.58;;;0.90;;
40433;SDS011;26146;51.114;5.654;2023-07-31T21:42:20;4.07;;;1.10;;
40433;SDS011;26146;51.114;5.654;2023-07-31T21:46:21;4.70;;;1.00;;
40433;SDS011;26146;51.114;5.654;2023-07-31T21:50:22;3.10;;;0.90;;
40433;SDS011;26146;51.114;5.654;2023-07-31T21:54:23;2.80;;;0.68;;
40433;SDS011;26146;51.114;5.654;2023-07-31T21:58:24;3.65;;;0.73;;
40433;SDS011;26146;51.114;5.654;2023-07-31T22:02:25;4.65;;;0.68;;
40433;SDS011;26146;51.114;5.654;2023-07-31T22:06:26;3.00;;;0.73;;
40433;SDS011;26146;51.114;5.654;2023-07-31T22:10:27;2.90;;;0.60;;
40433;SDS011;26146;51.114;5.654;2023-07-31T22:14:28;2.58;;;0.70;;
40433;SDS011;26146;51.114;5.654;2023-07-31T22:18:29;3.35;;;0.70;;
40433;SDS011;26146;51.114;5.654;2023-07-31T22:22:30;3.65;;;0.70;;
40433;SDS011;26146;51.114;5.654;2023-07-31T22:26:31;3.15;;;0.75;;
40433;SDS011;26146;51.114;5.654;2023-07-31T22:30:32;3.78;;;0.80;;
40433;SDS011;26146;51.114;5.654;2023-07-31T22:34:33;3.55;;;0.85;;
40433;SDS011;26146;51.114;5.654;2023-07-31T22:38:34;3.55;;;0.70;;
40433;SDS011;26146;51.114;5.654;2023-07-31T22:42:35;3.22;;;0.60;;
40433;SDS011;26146;51.114;5.654;2023-07-31T22:46:36;2.55;;;0.50;;
40433;SDS011;26146;51.114;5.654;2023-07-31T22:50:37;2.53;;;0.40;;
40433;SDS011;26146;51.114;5.654;2023-07-31T22:54:38;1.70;;;0.35;;
40433;SDS011;26146;51.114;5.654;2023-07-31T22:58:39;1.25;;;0.10;;
40433;SDS011;26146;51.114;5.654;2023-07-31T23:02:40;0.90;;;0.20;;
40433;SDS011;26146;51.114;5.654;2023-07-31T23:06:41;0.63;;;0.20;;
40433;SDS011;26146;51.114;5.654;2023-07-31T23:10:46;1.65;;;0.20;;
40433;SDS011;26146;51.114;5.654;2023-07-31T23:14:51;2.78;;;0.20;;
40433;SDS011;26146;51.114;5.654;2023-07-31T23:18:52;0.45;;;0.10;;
40433;SDS011;26146;51.114;5.654;2023-07-31T23:22:53;2.05;;;0.20;;
40433;SDS011;26146;51.114;5.654;2023-07-31T23:26:54;0.75;;;0.15;;
40433;SDS011;26146;51.114;5.654;2023-07-31T23:31:00;1.35;;;0.20;;
40433;SDS011;26146;51.114;5.654;2023-07-31T23:35:03;1.15;;;0.30;;
40433;SDS011;26146;51.114;5.654;2023-07-31T23:39:04;1.00;;;0.25;;
40433;SDS011;26146;51.114;5.654;2023-07-31T23:43:05;1.13;;;0.30;;
40433;SDS011;26146;51.114;5.654;2023-07-31T23:47:06;1.75;;;0.40;;
40433;SDS011;26146;51.114;5.654;2023-07-31T23:51:07;1.58;;;0.40;;
40433;SDS011;26146;51.114;5.654;2023-07-31T23:55:09;1.30;;;0.20;;
40433;SDS011;26146;51.114;5.654;2023-07-31T23:59:10;1.15;;;0.40;;
